Weather History for Detroit Lakes, MN

Change the Weather History Date:

Friday, August 2, 2013

  Actual Average Record
Temperature  
Mean Temperature 64 °F -  
Max Temperature 73 °F 79 °F 93 °F (1938)
Min Temperature 55 °F 53 °F 40 °F (1971)
Degree Days  
Heating Degree Days 1    
Growing Degree Days 14 (Base 50)    
Moisture  
Dew Point 50 °F    
Average Humidity 64    
Maximum Humidity 94    
Minimum Humidity 35    
Precipitation  
Precipitation 0.00 in - - ()
Sea Level Pressure  
Sea Level Pressure 30.01 in    
Wind  
Wind Speed 4 mph (NNW)    
Max Wind Speed 13 mph    
Max Gust Speed 20 mph    
Visibility 10 miles    
Events      
Averages and records for this station are not official NWS values.
T = Trace of Precipitation, MM = Missing Value Source: NWS Daily Summary

Daily Weather History Graph

Daily Weather History Graph

Search for Another Location

Airport:

Trip Planner

Search our weather history database for the weather conditions in past years. The results will help you decide how hot, cold, wet, or windy it might be!

Date:

Astronomy

Aug. 02, 2013 Rise Set
Actual Time 6:05 AM CDT 8:53 PM CDT
Civil Twilight 5:29 AM CDT 9:28 PM CDT
Nautical Twilight 4:45 AM CDT 10:13 PM CDT
Astronomical Twilight 3:51 AM CDT 11:05 PM CDT
Moon 2:24 AM CDT (8/2) 5:54 PM CDT (8/2)
Length of Visible Light 15h 58m
Length of Day
14h 48m
Waning Crescent, 15% of the Moon is Illuminated
Aug 2
Waning Crescent
Aug 6
New
Aug 14
First Quarter
Aug 20
Full
Aug 28
Last Quarter

Hourly Weather History & Observations

Time (CDT) Temp. Dew Point Humidity Pressure Visibility Wind Dir Wind Speed Gust Speed Precip Events Conditions
12:15 AM 60.8 °F 51.8 °F 72% 29.94 in 10.0 mi NW 3.5 mph - N/A   Clear
12:36 AM 59.0 °F 53.6 °F 82% 29.93 in 10.0 mi Calm Calm - N/A   Clear
12:55 AM 60.8 °F 51.8 °F 72% 29.93 in 10.0 mi Calm Calm - N/A   Clear
1:15 AM 60.8 °F 51.8 °F 72% 29.93 in 10.0 mi Calm Calm - N/A   Clear
1:36 AM 59.0 °F 53.6 °F 82% 29.93 in 10.0 mi Calm Calm - N/A   Clear
1:55 AM 59.0 °F 53.6 °F 82% 29.94 in 10.0 mi Calm Calm - N/A   Clear
2:15 AM 59.0 °F 53.6 °F 82% 29.93 in 10.0 mi NNW 3.5 mph - N/A   Clear
2:35 AM 59.0 °F 53.6 °F 82% 29.93 in 10.0 mi Calm Calm - N/A   Clear
2:56 AM 59.0 °F 53.6 °F 82% 29.94 in 10.0 mi NNW 3.5 mph - N/A   Clear
3:15 AM 59.0 °F 53.6 °F 82% 29.94 in 10.0 mi NNW 3.5 mph - N/A   Clear
3:35 AM 59.0 °F 53.6 °F 82% 29.93 in 10.0 mi Calm Calm - N/A   Clear
3:56 AM 59.0 °F 53.6 °F 82% 29.94 in 10.0 mi Calm Calm - N/A   Clear
4:15 AM 57.2 °F 53.6 °F 88% 29.95 in 10.0 mi NNW 3.5 mph - N/A   Clear
4:35 AM 57.2 °F 51.8 °F 82% 29.95 in 10.0 mi Calm Calm - N/A   Clear
4:56 AM 57.2 °F 53.6 °F 88% 29.95 in 10.0 mi NW 3.5 mph - N/A   Clear
5:15 AM 57.2 °F 53.6 °F 88% 29.95 in 10.0 mi Calm Calm - N/A   Clear
5:35 AM 55.4 °F 51.8 °F 88% 29.95 in 10.0 mi NNW 3.5 mph - N/A   Clear
5:56 AM 55.4 °F 51.8 °F 88% 29.96 in 10.0 mi NNW 3.5 mph - N/A   Clear
6:15 AM 55.4 °F 51.8 °F 88% 29.97 in 10.0 mi Calm Calm - N/A   Clear
6:35 AM 55.4 °F 51.8 °F 88% 29.97 in 10.0 mi NNW 3.5 mph - N/A   Clear
6:56 AM 55.4 °F 53.6 °F 94% 29.96 in 10.0 mi Calm Calm - N/A   Clear
7:15 AM 55.4 °F 53.6 °F 94% 29.97 in 10.0 mi WNW 3.5 mph - N/A   Clear
7:35 AM 55.4 °F 53.6 °F 94% 29.98 in 10.0 mi Calm Calm - N/A   Clear
7:55 AM 57.2 °F 53.6 °F 88% 29.99 in 10.0 mi Calm Calm - N/A   Clear
8:15 AM 59.0 °F 53.6 °F 82% 29.99 in 10.0 mi NW 3.5 mph - N/A   Clear
8:35 AM 59.0 °F 53.6 °F 82% 29.99 in 10.0 mi NNW 3.5 mph - N/A   Clear
8:55 AM 60.8 °F 55.4 °F 82% 29.99 in 10.0 mi NNW 3.5 mph - N/A   Clear
9:16 AM 62.6 °F 55.4 °F 77% 30.00 in 10.0 mi Calm Calm - N/A   Clear
9:35 AM 62.6 °F 53.6 °F 72% 30.00 in 10.0 mi NNW 4.6 mph - N/A   Clear
9:55 AM 64.4 °F 53.6 °F 68% 30.00 in 10.0 mi NNE 8.1 mph - N/A   Clear
10:16 AM 66.2 °F 51.8 °F 60% 30.01 in 10.0 mi North 10.4 mph - N/A   Clear
10:35 AM 64.4 °F 51.8 °F 64% 30.00 in 10.0 mi North 5.8 mph - N/A   Clear
10:55 AM 68.0 °F 51.8 °F 56% 30.00 in 10.0 mi North 4.6 mph - N/A   Clear
11:16 AM 68.0 °F 51.8 °F 56% 30.01 in 10.0 mi North 5.8 mph - N/A   Clear
11:35 AM 68.0 °F 51.8 °F 56% 30.01 in 10.0 mi North 8.1 mph - N/A   Clear
11:55 AM 69.8 °F 51.8 °F 53% 30.02 in 10.0 mi NNW 10.4 mph - N/A   Clear
12:16 PM 69.8 °F 50.0 °F 49% 30.02 in 10.0 mi North 8.1 mph - N/A   Clear
12:35 PM 69.8 °F 50.0 °F 49% 30.02 in 10.0 mi NNW 10.4 mph 16.1 mph N/A   Scattered Clouds
12:55 PM 71.6 °F 50.0 °F 46% 30.02 in 10.0 mi North 6.9 mph - N/A   Scattered Clouds
1:16 PM 71.6 °F 48.2 °F 43% 30.02 in 10.0 mi North 10.4 mph 19.6 mph N/A   Clear
1:35 PM 71.6 °F 46.4 °F 41% 30.02 in 10.0 mi NNW 5.8 mph 16.1 mph N/A   Clear
1:55 PM 71.6 °F 46.4 °F 41% 30.02 in 10.0 mi NNW 12.7 mph 18.4 mph N/A   Scattered Clouds
2:16 PM 71.6 °F 44.6 °F 38% 30.03 in 10.0 mi NNW 11.5 mph 17.3 mph N/A   Clear
2:35 PM 71.6 °F 46.4 °F 41% 30.03 in 10.0 mi North 8.1 mph 16.1 mph N/A   Clear
2:55 PM 71.6 °F 44.6 °F 38% 30.03 in 10.0 mi NNW 8.1 mph - N/A   Clear
3:16 PM 71.6 °F 44.6 °F 38% 30.02 in 10.0 mi North 5.8 mph 10.4 mph N/A   Clear
3:35 PM 71.6 °F 46.4 °F 41% 30.03 in 10.0 mi NNW 12.7 mph - N/A   Clear
3:55 PM 73.4 °F 46.4 °F 38% 30.02 in 10.0 mi NNW 10.4 mph - N/A   Clear
4:16 PM 71.6 °F 46.4 °F 41% 30.02 in 10.0 mi North 9.2 mph - N/A   Clear
4:35 PM 71.6 °F 46.4 °F 41% 30.02 in 10.0 mi North 10.4 mph - N/A   Clear
4:55 PM 73.4 °F 44.6 °F 36% 30.02 in 10.0 mi North 10.4 mph 18.4 mph N/A   Clear
5:16 PM 71.6 °F 44.6 °F 38% 30.02 in 10.0 mi NNW 11.5 mph 18.4 mph N/A   Clear
5:35 PM 71.6 °F 42.8 °F 35% 30.03 in 10.0 mi NNW 11.5 mph - N/A   Clear
5:55 PM 71.6 °F 44.6 °F 38% 30.03 in 10.0 mi NNW 8.1 mph - N/A   Clear
6:16 PM 71.6 °F 44.6 °F 38% 30.04 in 10.0 mi NNW 10.4 mph - N/A   Clear
6:35 PM 71.6 °F 44.6 °F 38% 30.04 in 10.0 mi NNW 10.4 mph - N/A   Clear
6:56 PM 69.8 °F 46.4 °F 43% 30.05 in 10.0 mi NW 8.1 mph - N/A   Clear
7:15 PM 68.0 °F 50.0 °F 52% 30.05 in 10.0 mi NW 6.9 mph - N/A   Clear
7:35 PM 69.8 °F 48.2 °F 46% 30.05 in 10.0 mi NW 9.2 mph - N/A   Clear
7:56 PM 68.0 °F 50.0 °F 52% 30.05 in 10.0 mi NW 5.8 mph - N/A   Clear
8:15 PM 68.0 °F 50.0 °F 52% 30.06 in 10.0 mi WNW 8.1 mph - N/A   Clear
8:35 PM 66.2 °F 50.0 °F 56% 30.06 in 10.0 mi NW 4.6 mph - N/A   Clear
8:56 PM 64.4 °F 50.0 °F 59% 30.07 in 10.0 mi NW 4.6 mph - N/A   Clear
9:15 PM 62.6 °F 50.0 °F 63% 30.07 in 10.0 mi WNW 5.8 mph - N/A   Scattered Clouds
9:35 PM 62.6 °F 51.8 °F 68% 30.08 in 10.0 mi WNW 4.6 mph - N/A   Scattered Clouds
9:56 PM 62.6 °F 50.0 °F 63% 30.08 in 10.0 mi NW 6.9 mph - N/A   Clear
10:15 PM 60.8 °F 50.0 °F 68% 30.08 in 10.0 mi NNW 4.6 mph - N/A   Clear
10:35 PM 60.8 °F 50.0 °F 68% 30.10 in 10.0 mi NW 4.6 mph - N/A   Clear
10:55 PM 59.0 °F 50.0 °F 72% 30.10 in 10.0 mi NW 4.6 mph - N/A   Clear
11:15 PM 59.0 °F 50.0 °F 72% 30.11 in 10.0 mi NW 4.6 mph - N/A   Clear
11:36 PM 59.0 °F 50.0 °F 72% 30.11 in 10.0 mi NW 5.8 mph - N/A   Clear
11:55 PM 59.0 °F 50.0 °F 72% 30.12 in 10.0 mi NW 5.8 mph - N/A   Clear